createdAt,value
2022-09-12T00:00:39.496Z,16.71
2022-09-12T00:05:32.822Z,16.66
2022-09-12T00:10:24.569Z,16.59
2022-09-12T00:15:16.308Z,16.54
2022-09-12T00:20:09.463Z,16.46
2022-09-12T00:25:01.164Z,16.37
2022-09-12T00:29:52.823Z,16.31
2022-09-12T00:34:44.602Z,16.24
2022-09-12T00:39:36.157Z,16.20
2022-09-12T00:44:27.983Z,16.17
2022-09-12T00:49:42.950Z,16.14
2022-09-12T00:54:42.843Z,16.10
2022-09-12T00:59:57.531Z,16.08
2022-09-12T01:04:51.381Z,16.02
2022-09-12T01:09:45.382Z,15.97
2022-09-12T01:14:38.425Z,15.94
2022-09-12T01:19:54.729Z,15.91
2022-09-12T01:24:53.009Z,15.86
2022-09-12T01:30:13.614Z,15.85
2022-09-12T01:35:10.841Z,15.82
2022-09-12T01:40:31.708Z,15.81
2022-09-12T01:45:33.905Z,15.78
2022-09-12T01:50:31.153Z,15.75
2022-09-12T01:55:28.764Z,15.70
2022-09-12T02:00:20.597Z,15.68
2022-09-12T02:05:20.459Z,15.65
2022-09-12T02:10:18.216Z,15.62
2022-09-12T02:15:12.226Z,15.61
2022-09-12T02:20:25.998Z,15.56
2022-09-12T02:25:29.346Z,15.54
2022-09-12T02:30:22.220Z,15.54
2022-09-12T02:35:47.122Z,15.54
2022-09-12T02:40:39.086Z,15.50
2022-09-12T02:45:34.373Z,15.49
2022-09-12T02:50:26.925Z,15.44
2022-09-12T02:55:18.958Z,15.41
2022-09-12T03:00:11.323Z,15.42
2022-09-12T03:05:09.116Z,15.44
2022-09-12T03:10:03.773Z,15.44
2022-09-12T03:15:38.407Z,15.44
2022-09-12T03:20:39.353Z,15.44
2022-09-12T03:25:34.371Z,15.44
2022-09-12T03:30:26.987Z,15.45
2022-09-12T03:35:23.128Z,15.44
2022-09-12T03:40:15.687Z,15.44
2022-09-12T03:45:08.806Z,15.46
2022-09-12T03:50:00.598Z,15.46
2022-09-12T03:54:52.263Z,15.51
2022-09-12T03:59:43.972Z,15.50
2022-09-12T04:04:35.646Z,15.50
2022-09-12T04:09:27.342Z,15.51
2022-09-12T04:14:18.985Z,15.50
2022-09-12T04:19:11.884Z,15.50
2022-09-12T04:24:03.797Z,15.54
2022-09-12T04:28:57.765Z,15.56
2022-09-12T04:33:57.326Z,15.57
2022-09-12T04:38:49.011Z,15.56
2022-09-12T04:43:41.132Z,15.60
2022-09-12T04:48:32.816Z,15.61
2022-09-12T04:53:24.506Z,15.63
2022-09-12T04:58:16.333Z,15.63
2022-09-12T05:03:08.501Z,15.58
2022-09-12T05:08:00.276Z,15.56
2022-09-12T05:12:52.857Z,15.55
2022-09-12T05:17:44.697Z,15.56
2022-09-12T05:22:36.329Z,15.55
2022-09-12T05:27:27.968Z,15.56
2022-09-12T05:32:19.734Z,15.56
2022-09-12T05:37:11.431Z,15.61
2022-09-12T05:42:03.415Z,15.64
2022-09-12T05:46:55.052Z,15.64
2022-09-12T05:51:46.851Z,15.66
2022-09-12T05:56:41.343Z,15.66
2022-09-12T06:01:35.526Z,15.68
2022-09-12T06:06:29.145Z,15.66
2022-09-12T06:11:24.949Z,15.65
2022-09-12T06:16:22.550Z,15.69
2022-09-12T06:21:14.705Z,15.71
2022-09-12T06:26:08.618Z,15.74
2022-09-12T06:31:06.151Z,15.75
2022-09-12T06:36:06.900Z,15.80
2022-09-12T06:41:00.710Z,15.84
2022-09-12T06:45:52.315Z,15.86
2022-09-12T06:50:44.223Z,15.89
2022-09-12T06:55:35.935Z,15.96
2022-09-12T07:00:27.807Z,16.01
2022-09-12T07:05:19.519Z,16.03
2022-09-12T07:10:12.499Z,16.13
2022-09-12T07:15:04.317Z,16.26
2022-09-12T07:19:56.280Z,16.39
2022-09-12T07:24:47.969Z,16.54
2022-09-12T07:29:39.703Z,16.70
2022-09-12T07:34:31.905Z,16.94
2022-09-12T07:39:23.582Z,17.17
2022-09-12T07:44:15.214Z,17.26
2022-09-12T07:49:08.578Z,17.30
2022-09-12T07:54:00.377Z,17.38
2022-09-12T07:58:52.120Z,17.46
2022-09-12T08:03:47.363Z,17.61
2022-09-12T08:08:39.173Z,18.19
2022-09-12T08:13:30.873Z,18.52
2022-09-12T08:18:22.621Z,18.59
2022-09-12T08:23:14.260Z,18.53
2022-09-12T08:28:06.386Z,18.47
2022-09-12T08:32:58.413Z,18.48
2022-09-12T08:37:50.085Z,18.58
2022-09-12T08:43:00.499Z,18.69
2022-09-12T08:47:52.788Z,18.82
2022-09-12T08:52:59.705Z,18.95
2022-09-12T08:57:52.125Z,19.09
2022-09-12T09:03:01.802Z,19.13
2022-09-12T09:08:22.818Z,19.24
2022-09-12T09:13:43.365Z,19.26
2022-09-12T09:18:36.034Z,19.32
2022-09-12T09:23:34.117Z,19.38
2022-09-12T09:28:29.248Z,19.51
2022-09-12T09:33:28.150Z,19.59
2022-09-12T09:38:41.088Z,19.75
2022-09-12T09:43:32.845Z,19.94
2022-09-12T09:48:47.368Z,20.26
2022-09-12T09:53:56.595Z,20.69
2022-09-12T09:58:48.397Z,21.42
2022-09-12T10:03:40.624Z,21.81
2022-09-12T10:08:35.361Z,21.82
2022-09-12T10:13:42.678Z,21.90
2022-09-12T10:18:37.726Z,21.90
2022-09-12T10:23:37.790Z,22.08
2022-09-12T10:28:37.616Z,22.36
2022-09-12T10:33:30.021Z,22.58
2022-09-12T10:38:32.265Z,22.69
2022-09-12T10:43:29.656Z,22.78
2022-09-12T10:48:31.972Z,22.91
2022-09-12T10:53:25.161Z,22.89
2022-09-12T10:58:32.234Z,22.81
2022-09-12T11:03:49.163Z,22.80
2022-09-12T11:08:53.492Z,22.81
2022-09-12T11:14:06.823Z,22.83
2022-09-12T11:19:21.677Z,22.83
2022-09-12T11:24:25.714Z,23.04
2022-09-12T11:29:29.273Z,23.38
2022-09-12T11:34:40.015Z,23.42
2022-09-12T11:39:40.063Z,23.16
2022-09-12T11:44:40.665Z,23.00
2022-09-12T11:49:38.584Z,22.84
2022-09-12T11:54:39.260Z,22.66
2022-09-12T11:59:42.759Z,22.48
2022-09-12T12:04:44.632Z,22.32
2022-09-12T12:09:45.529Z,22.23
2022-09-12T12:14:47.286Z,22.24
2022-09-12T12:19:39.028Z,22.20
2022-09-12T12:24:30.797Z,22.13
2022-09-12T12:29:22.356Z,22.05
2022-09-12T12:34:35.944Z,21.98
2022-09-12T12:39:33.653Z,21.90
2022-09-12T12:44:44.092Z,21.80
2022-09-12T12:49:36.096Z,21.66
2022-09-12T12:54:48.299Z,21.50
2022-09-12T12:59:52.004Z,21.41
2022-09-12T13:04:45.260Z,21.29
2022-09-12T13:09:49.959Z,21.14
2022-09-12T13:14:51.903Z,21.14
2022-09-12T13:19:44.221Z,21.07
2022-09-12T13:24:52.375Z,20.88
2022-09-12T13:29:44.112Z,20.69
2022-09-12T13:34:46.360Z,20.58
2022-09-12T13:39:44.217Z,20.48
2022-09-12T13:44:44.669Z,20.37
2022-09-12T13:49:39.465Z,20.28
2022-09-12T13:54:32.638Z,20.24
2022-09-12T13:59:24.963Z,20.25
2022-09-12T14:04:40.751Z,20.23
2022-09-12T14:09:38.570Z,20.19
2022-09-12T14:14:36.695Z,20.15
2022-09-12T14:19:29.332Z,20.15
2022-09-12T14:24:23.467Z,20.20
2022-09-12T14:29:16.885Z,20.21
2022-09-12T14:34:17.225Z,20.22
2022-09-12T14:39:30.787Z,20.18
2022-09-12T14:44:27.782Z,20.22
2022-09-12T14:49:35.134Z,20.20
2022-09-12T14:54:30.278Z,20.21
2022-09-12T14:59:40.479Z,20.27
2022-09-12T15:04:39.551Z,20.28
2022-09-12T15:09:31.250Z,20.22
2022-09-12T15:14:22.869Z,20.26
2022-09-12T15:19:14.544Z,20.28
2022-09-12T15:24:06.478Z,20.28
2022-09-12T15:33:49.830Z,20.26
2022-09-12T15:38:41.598Z,20.32
2022-09-12T15:43:33.222Z,20.32
2022-09-12T15:48:24.862Z,20.37
2022-09-12T15:53:17.317Z,20.39
2022-09-12T15:58:09.329Z,20.44
2022-09-12T16:03:01.181Z,20.44
2022-09-12T16:07:54.226Z,20.41
2022-09-12T16:12:46.310Z,20.35
2022-09-12T16:17:37.923Z,20.28
2022-09-12T16:22:29.809Z,20.29
2022-09-12T16:27:21.463Z,20.29
2022-09-12T16:32:13.244Z,20.27
2022-09-12T16:37:05.647Z,20.24
2022-09-12T16:41:57.458Z,20.25
2022-09-12T16:46:50.902Z,20.24
2022-09-12T16:51:45.052Z,20.21
2022-09-12T16:56:36.807Z,20.17
2022-09-12T17:01:28.597Z,20.14
2022-09-12T17:06:20.524Z,20.12
2022-09-12T17:11:15.165Z,20.08
2022-09-12T17:16:08.669Z,19.99
2022-09-12T17:21:00.394Z,19.87
2022-09-12T17:25:52.499Z,19.74
2022-09-12T17:30:44.660Z,19.62
2022-09-12T17:35:37.845Z,19.45
2022-09-12T17:40:55.793Z,19.33
2022-09-12T17:45:41.872Z,19.18
2022-09-12T17:50:40.623Z,18.99
2022-09-12T17:55:36.095Z,18.85
2022-09-12T18:00:48.262Z,18.72
2022-09-12T18:05:52.867Z,18.60
2022-09-12T18:10:45.050Z,18.50
2022-09-12T18:15:37.081Z,18.43
2022-09-12T18:20:29.054Z,18.33
2022-09-12T18:25:20.801Z,18.22
2022-09-12T18:30:22.130Z,18.15
2022-09-12T18:35:14.382Z,18.09
2022-09-12T18:40:06.302Z,18.00
2022-09-12T18:44:58.047Z,17.97
2022-09-12T18:49:49.690Z,17.92
2022-09-12T18:54:42.137Z,17.87
2022-09-12T18:59:33.863Z,17.83
2022-09-12T19:04:25.692Z,17.79
2022-09-12T19:09:20.721Z,17.63
2022-09-12T19:14:12.516Z,17.49
2022-09-12T19:19:04.355Z,17.38
2022-09-12T19:23:58.921Z,17.30
2022-09-12T19:28:50.980Z,17.17
2022-09-12T19:33:42.751Z,17.04
2022-09-12T19:38:35.070Z,16.96
2022-09-12T19:43:27.543Z,16.89
2022-09-12T19:48:20.361Z,16.82
2022-09-12T19:53:12.258Z,16.72
2022-09-12T19:58:07.757Z,16.59
2022-09-12T20:03:00.021Z,16.49
2022-09-12T20:07:53.293Z,16.42
2022-09-12T20:12:45.128Z,16.37
2022-09-12T20:17:37.016Z,16.33
2022-09-12T20:22:28.832Z,16.29
2022-09-12T20:27:20.821Z,16.26
2022-09-12T20:32:12.433Z,16.23
2022-09-12T20:37:04.289Z,16.18
2022-09-12T20:41:56.078Z,16.12
2022-09-12T20:46:47.808Z,16.06
2022-09-12T20:51:39.537Z,16.02
2022-09-12T20:56:33.621Z,16.00
2022-09-12T21:01:28.540Z,15.97
2022-09-12T21:06:21.475Z,15.90
2022-09-12T21:11:14.802Z,15.87
2022-09-12T21:16:11.299Z,15.85
2022-09-12T21:21:05.454Z,15.76
2022-09-12T21:25:59.728Z,15.72
2022-09-12T21:30:52.680Z,15.68
2022-09-12T21:35:45.403Z,15.61
2022-09-12T21:40:38.213Z,15.56
2022-09-12T21:45:30.526Z,15.48
2022-09-12T21:50:22.188Z,15.38
2022-09-12T21:55:13.969Z,15.32
2022-09-12T22:00:08.086Z,15.27
2022-09-12T22:04:59.828Z,15.20
2022-09-12T22:09:52.237Z,15.16
2022-09-12T22:14:44.857Z,15.13
2022-09-12T22:19:37.241Z,15.10
2022-09-12T22:24:29.139Z,15.06
2022-09-12T22:29:21.957Z,15.03
2022-09-12T22:34:14.593Z,14.97
2022-09-12T22:39:07.634Z,14.95
2022-09-12T22:43:59.863Z,14.83
2022-09-12T22:48:52.359Z,14.77
2022-09-12T22:53:44.285Z,14.67
2022-09-12T22:58:41.400Z,14.60
2022-09-12T23:03:33.260Z,14.48
2022-09-12T23:08:29.535Z,14.40
2022-09-12T23:13:21.341Z,14.29
2022-09-12T23:18:12.939Z,14.23
2022-09-12T23:23:04.589Z,14.22
2022-09-12T23:27:56.301Z,14.21
2022-09-12T23:32:50.689Z,14.18
2022-09-12T23:37:42.328Z,14.09
2022-09-12T23:42:34.000Z,14.04
2022-09-12T23:47:25.649Z,13.95
2022-09-12T23:52:17.289Z,13.92
2022-09-12T23:57:08.931Z,13.84
